Skip Navigation Links
NOAA logo - Click to go to the NOAA homepage
NOAA's National Weather Service
Alaska Aviation Weather Unit
  NWS logo - Click to go to the NWS homepage
Left Navbar Graphic     08 AKDT = 16 GMT

   
NOAA is celebrating 200 years of science, service, and stewardship. Visit the NOAA 200th celebration Web site to learn more.
USA.gov is the U.S. Government's official Web portal to all Federal, state and local government Web resources and services.
Facebook
NWS on Facebook

Important Change Regarding the AAWU Web Presence

 

Over the last several months, the AAWU has been working to navigate its webpages to a nationally supported server. Security, as well as other needs, have necessitated the change.  In the process, we have made an effort to enhance the functionality of our website, as well as some of our products. As of June 20, 2017, aawu.arh.noaa.gov will be discontinued. The new AAWU web address is weather.gov/aawu. It is now live and will run in-parallel with the old site until it is discontinued. Please send any feedback or questions regarding the new webpages to nws.ar.aawu.webauthors@noaa.gov.  Thank you for your patience during this time of transition.
AAWU Home :: Display TAF Add Bookmark
TAF PADL 291601Z 2916/3012 VRB03KT P6SM SCT007 BKN015 OVC040
     FM291800 VRB05KT P6SM VCSH SCT025 BKN035
     FM292300 16008KT P6SM SCT060 BKN250
     FM300600 VRB04KT P6SM FEW150 SCT250=

METAR PADL 291056Z AUTO 36004KT 10SM -RA BKN032 OVC048 06/04 A2979= METAR PADL 291156Z AUTO 02004KT 10SM OVC043 05/04 A2980= METAR PADL 291256Z AUTO 01003KT 10SM CLR 04/04 A2981= METAR PADL 291356Z AUTO 00000KT 10SM BKN039 04/04 A2982= PADL 291416Z AUTO 00000KT 1 1/4SM BR SCT041 04/04 A2982= PADL 291418Z AUTO 00000KT 3/4SM BR FEW041 04/04 A2982= PADL 291422Z AUTO 00000KT 1/4SM FG FEW041 04/04 A2982= PADL 291438Z AUTO 00000KT 1/4SM FG FEW011 BKN022 04/04 A2982= SPECI PADL 291441Z AUTO 00000KT 1/2SM FG FEW005 SCT011 BKN022 04/04 A2982 RMK AO2= PADL 291447Z AUTO 00000KT 1/2SM FG BKN005 BKN011 OVC022 04/04 A2982 RMK AO2 VIS 1/4V1 3/4= PADL 291449Z AUTO 00000KT 1SM BR BKN005 BKN011 OVC022 04/04 A2982= PADL 291454Z AUTO 00000KT 2SM BR BKN007 BKN011 OVC022 04/04 A2982= METAR PADL 291456Z AUTO 00000KT 3SM BR BKN007 BKN011 OVC022 04/04 A2982= SPECI PADL 291536Z 00000KT 10SM SCT007 BKN015 OVC045 05/04 A2983 RMK AO2= METAR PADL 291556Z 00000KT 10SM SCT007 BKN015 OVC045 05/04 A2983= PADL 291603Z 00000KT 10SM OVC009 05/04 A2984= SPECI PADL 291603Z 00000KT 10SM OVC009 05/04 A2984 RMK AO2= PADL 291610Z 02003KT 10SM SCT009 BKN020 OVC040 06/05 A2984= SPECI PADL 291610Z 02003KT 10SM SCT009 BKN020 OVC040 06/05 A2984 RMK AO2=
 Alaska TAF Map

NOAA's National Weather Service
Alaska Aviation Weather Unit
6930 Sand Lake Road
Anchorage, AK 99502-1845
Disclaimer
Credits
Glossary
Privacy Policy
About Us
Career Opportunities
Contact AAWU Internet Services Site last modified: April, 17th 2012